createdAt,value
2022-07-25T00:00:11.741Z,98758.78
2022-07-25T00:02:39.525Z,98758.63
2022-07-25T00:05:08.154Z,98752.31
2022-07-25T00:07:35.914Z,98746.81
2022-07-25T00:10:03.934Z,98742.38
2022-07-25T00:12:31.592Z,98740.53
2022-07-25T00:15:00.777Z,98735.16
2022-07-25T00:17:28.499Z,98738.91
2022-07-25T00:19:56.161Z,98737.44
2022-07-25T00:22:23.874Z,98733.69
2022-07-25T00:24:51.596Z,98725.03
2022-07-25T00:27:19.232Z,98718.41
2022-07-25T00:29:46.941Z,98721.31
2022-07-25T00:32:16.090Z,98717.00
2022-07-25T00:34:43.859Z,98717.47
2022-07-25T00:37:11.564Z,98720.00
2022-07-25T00:39:39.249Z,98713.09
2022-07-25T00:42:07.322Z,98712.72
2022-07-25T00:44:35.164Z,98705.59
2022-07-25T00:47:03.062Z,98706.84
2022-07-25T00:49:32.089Z,98703.53
2022-07-25T00:52:00.336Z,98707.16
2022-07-25T00:54:28.227Z,98700.16
2022-07-25T00:56:56.014Z,98703.84
2022-07-25T00:59:23.722Z,98695.09
2022-07-25T01:01:51.906Z,98701.69
2022-07-25T01:04:19.705Z,98693.19
2022-07-25T01:06:48.762Z,98697.16
2022-07-25T01:09:17.143Z,98690.53
2022-07-25T01:11:44.812Z,98689.53
2022-07-25T01:14:12.467Z,98680.31
2022-07-25T01:16:41.201Z,98666.59
2022-07-25T01:19:08.938Z,98682.31
2022-07-25T01:21:40.588Z,98686.31
2022-07-25T01:24:09.412Z,98679.41
2022-07-25T01:26:37.299Z,98674.19
2022-07-25T01:29:05.104Z,98675.56
2022-07-25T01:31:32.861Z,98678.69
2022-07-25T01:34:00.537Z,98671.09
2022-07-25T01:36:28.286Z,98672.94
2022-07-25T01:38:57.245Z,98677.31
2022-07-25T01:41:24.950Z,98671.25
2022-07-25T01:43:52.633Z,98676.69
2022-07-25T01:46:20.315Z,98666.09
2022-07-25T01:48:48.094Z,98672.53
2022-07-25T01:51:15.839Z,98673.69
2022-07-25T01:53:48.132Z,98664.38
2022-07-25T01:56:17.408Z,98665.28
2022-07-25T01:58:47.118Z,98669.56
2022-07-25T02:01:14.831Z,98655.41
2022-07-25T02:03:42.639Z,98657.75
2022-07-25T02:06:10.315Z,98652.53
2022-07-25T02:08:37.978Z,98650.94
2022-07-25T02:11:05.774Z,98646.06
2022-07-25T02:13:34.806Z,98638.84
2022-07-25T02:16:02.445Z,98645.22
2022-07-25T02:18:30.549Z,98638.69
2022-07-25T02:20:58.265Z,98634.00
2022-07-25T02:23:25.917Z,98632.06
2022-07-25T02:25:53.551Z,98634.34
2022-07-25T02:28:21.229Z,98631.22
2022-07-25T02:30:50.272Z,98627.16
2022-07-25T02:33:18.102Z,98622.13
2022-07-25T02:35:45.726Z,98619.78
2022-07-25T02:38:19.419Z,98627.72
2022-07-25T02:40:47.334Z,98626.41
2022-07-25T02:43:14.995Z,98636.00
2022-07-25T02:45:43.607Z,98631.47
2022-07-25T02:48:12.724Z,98625.41
2022-07-25T02:50:40.694Z,98618.34
2022-07-25T02:53:08.346Z,98615.28
2022-07-25T02:55:35.961Z,98614.03
2022-07-25T02:58:03.660Z,98613.78
2022-07-25T03:00:31.403Z,98620.84
2022-07-25T03:02:59.381Z,98619.31
2022-07-25T03:05:28.483Z,98620.03
2022-07-25T03:07:56.234Z,98614.44
2022-07-25T03:10:23.879Z,98615.69
2022-07-25T03:12:51.552Z,98615.94
2022-07-25T03:15:19.230Z,98611.81
2022-07-25T03:17:46.992Z,98603.97
2022-07-25T03:20:14.683Z,98603.56
2022-07-25T03:22:43.765Z,98599.34
2022-07-25T03:25:15.567Z,98598.91
2022-07-25T03:27:49.601Z,98600.34
2022-07-25T03:30:17.282Z,98598.38
2022-07-25T03:32:44.942Z,98595.53
2022-07-25T03:35:12.643Z,98600.06
2022-07-25T03:37:40.351Z,98601.06
2022-07-25T03:40:10.399Z,98592.75
2022-07-25T03:42:38.027Z,98598.09
2022-07-25T03:45:06.615Z,98592.03
2022-07-25T03:47:34.200Z,98590.34
2022-07-25T03:50:01.901Z,98584.84
2022-07-25T03:52:29.519Z,98595.41
2022-07-25T03:54:57.195Z,98583.72
2022-07-25T03:57:26.245Z,98583.31
2022-07-25T03:59:53.922Z,98564.28
2022-07-25T04:02:21.653Z,98578.25
2022-07-25T04:04:49.335Z,98575.41
2022-07-25T04:07:17.024Z,98574.56
2022-07-25T04:09:44.699Z,98580.91
2022-07-25T04:12:12.806Z,98579.47
2022-07-25T04:14:41.786Z,98575.53
2022-07-25T04:17:09.518Z,98570.28
2022-07-25T04:19:37.339Z,98576.38
2022-07-25T04:22:05.038Z,98576.94
2022-07-25T04:24:32.646Z,98570.44
2022-07-25T04:27:00.314Z,98567.44
2022-07-25T04:29:27.978Z,98568.56
2022-07-25T04:31:58.064Z,98566.72
2022-07-25T04:34:26.181Z,98566.00
2022-07-25T04:36:53.896Z,98571.06
2022-07-25T04:39:21.602Z,98569.38
2022-07-25T04:41:49.318Z,98570.88
2022-07-25T04:44:16.987Z,98563.53
2022-07-25T04:46:44.800Z,98566.22
2022-07-25T04:49:13.848Z,98567.31
2022-07-25T04:51:41.511Z,98568.56
2022-07-25T04:54:09.923Z,98560.38
2022-07-25T04:56:37.860Z,98564.44
2022-07-25T04:59:06.387Z,98570.66
2022-07-25T05:01:34.693Z,98555.09
2022-07-25T05:04:02.863Z,98562.56
2022-07-25T05:06:32.000Z,98551.06
2022-07-25T05:08:59.617Z,98565.03
2022-07-25T05:11:27.278Z,98557.09
2022-07-25T05:13:54.906Z,98558.88
2022-07-25T05:16:22.587Z,98556.88
2022-07-25T05:18:50.245Z,98549.91
2022-07-25T05:21:17.895Z,98555.97
2022-07-25T05:23:46.896Z,98551.91
2022-07-25T05:26:14.507Z,98537.03
2022-07-25T05:28:42.196Z,98546.47
2022-07-25T05:31:09.836Z,98538.56
2022-07-25T05:33:37.524Z,98540.00
2022-07-25T05:36:05.981Z,98543.94
2022-07-25T05:38:34.018Z,98532.59
2022-07-25T05:41:03.127Z,98535.66
2022-07-25T05:43:30.790Z,98531.41
2022-07-25T05:46:01.899Z,98532.44
2022-07-25T05:48:29.715Z,98527.75
2022-07-25T05:50:59.126Z,98527.91
2022-07-25T05:53:27.174Z,98526.31
2022-07-25T05:55:54.938Z,98525.16
2022-07-25T05:58:29.082Z,98535.25
2022-07-25T06:00:57.748Z,98531.63
2022-07-25T06:03:25.504Z,98528.53
2022-07-25T06:05:53.181Z,98531.75
2022-07-25T06:08:20.905Z,98527.03
2022-07-25T06:10:50.235Z,98530.47
2022-07-25T06:13:17.943Z,98527.91
2022-07-25T06:15:49.883Z,98522.56
2022-07-25T06:18:17.530Z,98523.06
2022-07-25T06:20:45.210Z,98524.94
2022-07-25T06:23:12.894Z,98526.94
2022-07-25T06:25:40.834Z,98527.28
2022-07-25T06:28:08.956Z,98522.78
2022-07-25T06:30:38.404Z,98523.63
2022-07-25T06:33:07.520Z,98519.94
2022-07-25T06:35:35.173Z,98509.84
2022-07-25T06:38:03.339Z,98509.84
2022-07-25T06:40:31.094Z,98516.06
2022-07-25T06:42:58.906Z,98514.03
2022-07-25T06:45:26.548Z,98510.00
2022-07-25T06:47:54.236Z,98518.41
2022-07-25T06:50:23.379Z,98498.16
2022-07-25T06:52:51.359Z,98513.47
2022-07-25T06:55:19.103Z,98519.00
2022-07-25T06:57:46.902Z,98512.41
2022-07-25T07:00:15.707Z,98515.75
2022-07-25T07:02:54.366Z,98516.03
2022-07-25T07:05:23.826Z,98507.41
2022-07-25T07:07:51.491Z,98518.72
2022-07-25T07:10:19.449Z,98520.56
2022-07-25T07:12:47.596Z,98522.13
2022-07-25T07:15:15.439Z,98518.03
2022-07-25T07:17:43.273Z,98513.41
2022-07-25T07:20:12.345Z,98517.44
2022-07-25T07:22:46.636Z,98516.84
2022-07-25T07:25:15.446Z,98510.69
2022-07-25T07:27:43.501Z,98500.41
2022-07-25T07:30:12.225Z,98502.31
2022-07-25T07:32:40.133Z,98503.94
2022-07-25T07:35:08.451Z,98501.44
2022-07-25T07:37:41.457Z,98490.84
2022-07-25T07:40:18.149Z,98498.03
2022-07-25T07:42:47.490Z,98497.81
2022-07-25T07:45:16.742Z,98481.13
2022-07-25T07:47:45.048Z,98491.66
2022-07-25T07:50:12.772Z,98500.13
2022-07-25T07:52:40.424Z,98504.91
2022-07-25T07:55:26.495Z,98502.09
2022-07-25T07:57:55.555Z,98498.16
2022-07-25T08:00:23.792Z,98498.63
2022-07-25T08:02:52.993Z,98495.34
2022-07-25T08:05:22.468Z,98497.03
2022-07-25T08:07:51.556Z,98496.81
2022-07-25T08:10:21.542Z,98506.16
2022-07-25T08:12:49.433Z,98499.72
2022-07-25T08:15:19.126Z,98496.53
2022-07-25T08:17:47.367Z,98498.03
2022-07-25T08:20:36.720Z,98489.41
2022-07-25T08:23:03.691Z,98487.72
2022-07-25T08:25:32.169Z,98490.00
2022-07-25T08:28:00.224Z,98484.19
2022-07-25T08:30:29.562Z,98482.31
2022-07-25T08:32:59.700Z,98478.75
2022-07-25T08:35:28.799Z,98476.91
2022-07-25T08:37:57.254Z,98478.50
2022-07-25T08:40:26.902Z,98474.78
2022-07-25T08:42:56.403Z,98476.75
2022-07-25T08:45:24.591Z,98470.66
2022-07-25T08:47:55.016Z,98476.50
2022-07-25T08:50:25.348Z,98475.16
2022-07-25T08:53:04.926Z,98476.66
2022-07-25T08:55:40.985Z,98471.72
2022-07-25T08:58:08.672Z,98476.19
2022-07-25T09:00:36.632Z,98475.78
2022-07-25T09:03:07.211Z,98466.59
2022-07-25T09:05:37.245Z,98455.72
2022-07-25T09:08:08.608Z,98452.59
2022-07-25T09:10:36.950Z,98447.97
2022-07-25T09:13:07.776Z,98442.75
2022-07-25T09:15:36.825Z,98436.81
2022-07-25T09:18:07.574Z,98438.34
2022-07-25T09:20:40.987Z,98446.53
2022-07-25T09:23:09.120Z,98433.19
2022-07-25T09:25:37.013Z,98429.34
2022-07-25T09:28:14.834Z,98427.78
2022-07-25T09:30:55.137Z,98422.50
2022-07-25T09:33:25.685Z,98432.47
2022-07-25T09:35:54.331Z,98429.41
2022-07-25T09:38:23.035Z,98426.97
2022-07-25T09:40:58.055Z,98428.06
2022-07-25T09:43:36.950Z,98418.81
2022-07-25T09:46:05.091Z,98417.09
2022-07-25T09:48:34.341Z,98413.28
2022-07-25T09:51:02.553Z,98423.06
2022-07-25T09:53:30.387Z,98406.69
2022-07-25T09:55:58.048Z,98408.88
2022-07-25T09:58:25.885Z,98418.06
2022-07-25T10:00:57.476Z,98410.84
2022-07-25T10:03:30.890Z,98411.06
2022-07-25T10:06:11.412Z,98402.22
2022-07-25T10:08:39.946Z,98405.47
2022-07-25T10:11:18.697Z,98403.69
2022-07-25T10:13:46.388Z,98400.00
2022-07-25T10:16:18.945Z,98399.31
2022-07-25T10:18:51.959Z,98390.38
2022-07-25T10:21:27.218Z,98388.00
2022-07-25T10:24:03.661Z,98378.84
2022-07-25T10:26:32.785Z,98374.31
2022-07-25T10:29:01.702Z,98382.25
2022-07-25T10:31:37.002Z,98384.91
2022-07-25T10:34:07.221Z,98388.56
2022-07-25T10:36:47.485Z,98383.94
2022-07-25T10:39:16.437Z,98381.69
2022-07-25T10:41:53.754Z,98385.84
2022-07-25T10:44:21.671Z,98382.06
2022-07-25T10:46:50.231Z,98377.50
2022-07-25T10:49:19.901Z,98370.88
2022-07-25T10:51:57.317Z,98375.06
2022-07-25T10:54:25.031Z,98362.97
2022-07-25T10:56:55.056Z,98367.38
2022-07-25T10:59:34.952Z,98358.91
2022-07-25T11:02:03.483Z,98357.84
2022-07-25T11:04:31.764Z,98354.97
2022-07-25T11:07:09.298Z,98359.63
2022-07-25T11:09:37.009Z,98353.44
2022-07-25T11:12:05.408Z,98358.31
2022-07-25T11:14:34.951Z,98362.38
2022-07-25T11:17:15.607Z,98359.25
2022-07-25T11:19:44.781Z,98353.38
2022-07-25T11:22:13.798Z,98362.53
2022-07-25T11:24:43.010Z,98359.84
2022-07-25T11:27:12.757Z,98366.25
2022-07-25T11:29:41.324Z,98356.16
2022-07-25T11:32:10.555Z,98357.06
2022-07-25T11:34:41.211Z,98364.13
2022-07-25T11:37:11.348Z,98362.72
2022-07-25T11:39:42.085Z,98354.63
2022-07-25T11:42:11.343Z,98355.22
2022-07-25T11:44:44.251Z,98362.09
2022-07-25T11:47:24.806Z,98359.72
2022-07-25T11:49:53.550Z,98359.97
2022-07-25T11:52:22.451Z,98362.94
2022-07-25T11:54:58.595Z,98361.03
2022-07-25T11:57:28.870Z,98360.25
2022-07-25T11:59:57.088Z,98359.72
2022-07-25T12:02:26.259Z,98347.09
2022-07-25T12:04:58.132Z,98355.00
2022-07-25T12:07:37.694Z,98359.00
2022-07-25T12:10:08.129Z,98347.84
2022-07-25T12:12:51.240Z,98338.28
2022-07-25T12:15:23.053Z,98339.06
2022-07-25T12:17:51.634Z,98333.78
2022-07-25T12:20:21.033Z,98342.22
2022-07-25T12:22:49.727Z,98338.53
2022-07-25T12:25:18.764Z,98326.91
2022-07-25T12:27:46.662Z,98327.75
2022-07-25T12:30:15.012Z,98323.69
2022-07-25T12:32:43.115Z,98327.59
2022-07-25T12:35:12.280Z,98333.19
2022-07-25T12:37:41.228Z,98330.78
2022-07-25T12:40:10.482Z,98334.00
2022-07-25T12:42:39.511Z,98330.44
2022-07-25T12:45:08.541Z,98339.06
2022-07-25T12:47:36.747Z,98341.78
2022-07-25T12:50:06.224Z,98340.81
2022-07-25T12:52:33.917Z,98352.31
2022-07-25T12:55:01.660Z,98348.34
2022-07-25T12:57:29.304Z,98348.44
2022-07-25T12:59:58.359Z,98345.34
2022-07-25T13:02:26.112Z,98351.19
2022-07-25T13:04:53.782Z,98339.06
2022-07-25T13:07:21.605Z,98339.44
2022-07-25T13:09:49.281Z,98336.78
2022-07-25T13:12:16.973Z,98328.06
2022-07-25T13:14:44.683Z,98334.38
2022-07-25T13:17:13.687Z,98340.88
2022-07-25T13:19:41.798Z,98344.38
2022-07-25T13:22:09.495Z,98342.09
2022-07-25T13:24:37.438Z,98342.09
2022-07-25T13:27:05.697Z,98349.63
2022-07-25T13:29:33.459Z,98342.34
2022-07-25T13:32:02.579Z,98330.31
2022-07-25T13:34:31.819Z,98327.13
2022-07-25T13:36:59.593Z,98318.56
2022-07-25T13:39:27.284Z,98311.47
2022-07-25T13:41:55.014Z,98315.69
2022-07-25T13:44:22.731Z,98322.72
2022-07-25T13:46:50.603Z,98320.56
2022-07-25T13:49:18.832Z,98321.53
2022-07-25T13:51:47.887Z,98306.78
2022-07-25T13:54:15.653Z,98317.41
2022-07-25T13:56:43.381Z,98311.06
2022-07-25T13:59:16.003Z,98296.19
2022-07-25T14:01:47.422Z,98305.16
2022-07-25T14:04:15.207Z,98294.66
2022-07-25T14:06:42.988Z,98295.63
2022-07-25T14:09:12.040Z,98307.28
2022-07-25T14:11:39.808Z,98304.56
2022-07-25T14:14:07.601Z,98299.66
2022-07-25T14:16:35.430Z,98294.81
2022-07-25T14:19:03.522Z,98296.22
2022-07-25T14:21:31.718Z,98291.09
2022-07-25T14:23:59.398Z,98292.16
2022-07-25T14:26:28.725Z,98291.44
2022-07-25T14:28:56.665Z,98274.69
2022-07-25T14:31:24.485Z,98285.97
2022-07-25T14:33:52.413Z,98282.19
2022-07-25T14:36:20.129Z,98280.88
2022-07-25T14:38:48.294Z,98277.28
2022-07-25T14:41:16.469Z,98266.25
2022-07-25T14:43:45.660Z,98277.06
2022-07-25T14:46:13.363Z,98276.47
2022-07-25T14:48:41.328Z,98278.03
2022-07-25T14:51:09.155Z,98261.25
2022-07-25T14:53:37.289Z,98262.91
2022-07-25T14:56:06.522Z,98264.94
2022-07-25T14:58:34.734Z,98265.88
2022-07-25T15:01:03.832Z,98270.88
2022-07-25T15:03:31.811Z,98267.78
2022-07-25T15:05:59.548Z,98267.66
2022-07-25T15:08:27.297Z,98265.50
2022-07-25T15:10:54.930Z,98272.66
2022-07-25T15:13:31.469Z,98277.88
2022-07-25T15:15:59.948Z,98279.78
2022-07-25T15:18:29.207Z,98285.88
2022-07-25T15:20:56.873Z,98273.38
2022-07-25T15:23:24.900Z,98287.19
2022-07-25T15:26:08.098Z,98299.28
2022-07-25T15:28:38.481Z,98298.59
2022-07-25T15:31:06.918Z,98292.63
2022-07-25T15:33:35.932Z,98299.28
2022-07-25T15:36:03.756Z,98301.44
2022-07-25T15:38:31.575Z,98318.31
2022-07-25T15:40:59.355Z,98326.91
2022-07-25T15:43:27.370Z,98319.38
2022-07-25T15:45:55.011Z,98327.31
2022-07-25T15:48:23.595Z,98331.34
2022-07-25T15:50:52.802Z,98322.00
2022-07-25T15:53:20.616Z,98326.16
2022-07-25T15:55:48.503Z,98321.59
2022-07-25T15:58:16.313Z,98325.16
2022-07-25T16:00:44.295Z,98325.38
2022-07-25T16:03:13.691Z,98327.19
2022-07-25T16:05:42.132Z,98327.88
2022-07-25T16:08:11.144Z,98317.88
2022-07-25T16:10:39.805Z,98342.50
2022-07-25T16:13:07.578Z,98330.84
2022-07-25T16:15:35.582Z,98332.06
2022-07-25T16:18:03.406Z,98323.28
2022-07-25T16:20:32.289Z,98337.78
2022-07-25T16:23:00.533Z,98338.56
2022-07-25T16:25:30.285Z,98346.34
2022-07-25T16:27:59.536Z,98347.25
2022-07-25T16:30:27.804Z,98347.81
2022-07-25T16:32:55.901Z,98353.81
2022-07-25T16:35:23.774Z,98356.69
2022-07-25T16:37:51.609Z,98358.63
2022-07-25T16:40:19.256Z,98349.31
2022-07-25T16:42:50.505Z,98375.06
2022-07-25T16:45:18.161Z,98374.84
2022-07-25T16:47:45.790Z,98367.78
2022-07-25T16:50:13.584Z,98370.53
2022-07-25T16:52:41.193Z,98376.53
2022-07-25T16:55:09.512Z,98383.16
2022-07-25T16:57:38.867Z,98378.75
2022-07-25T17:00:11.397Z,98394.97
2022-07-25T17:02:39.753Z,98392.06
2022-07-25T17:05:07.949Z,98397.00
2022-07-25T17:07:35.783Z,98405.19
2022-07-25T17:10:03.817Z,98412.31
2022-07-25T17:12:31.495Z,98411.34
2022-07-25T17:14:59.186Z,98419.28
2022-07-25T17:17:28.170Z,98416.97
2022-07-25T17:19:59.889Z,98421.78
2022-07-25T17:22:27.893Z,98427.03
2022-07-25T17:24:58.680Z,98426.41
2022-07-25T17:27:26.373Z,98431.44
2022-07-25T17:29:54.062Z,98439.78
2022-07-25T17:32:25.023Z,98440.19
2022-07-25T17:34:56.775Z,98435.59
2022-07-25T17:37:24.490Z,98452.38
2022-07-25T17:39:52.260Z,98451.31
2022-07-25T17:42:22.228Z,98461.78
2022-07-25T17:44:50.272Z,98461.16
2022-07-25T17:47:18.471Z,98465.72
2022-07-25T17:49:46.231Z,98479.28
2022-07-25T17:52:15.932Z,98465.59
2022-07-25T17:54:43.758Z,98475.66
2022-07-25T17:57:11.905Z,98487.75
2022-07-25T17:59:39.651Z,98493.94
2022-07-25T18:02:07.522Z,98490.31
2022-07-25T18:04:36.546Z,98488.59
2022-07-25T18:07:05.691Z,98497.09
2022-07-25T18:09:34.800Z,98492.47
2022-07-25T18:12:02.525Z,98494.22
2022-07-25T18:14:30.652Z,98499.25
2022-07-25T18:16:58.694Z,98502.72
2022-07-25T18:19:26.483Z,98494.53
2022-07-25T18:21:54.303Z,98500.06
2022-07-25T18:24:30.489Z,98508.50
2022-07-25T18:27:10.409Z,98500.50
2022-07-25T18:29:47.093Z,98505.38
2022-07-25T18:32:23.636Z,98502.41
2022-07-25T18:35:00.676Z,98485.44
2022-07-25T18:37:38.297Z,98509.91
2022-07-25T18:40:17.837Z,98514.41
2022-07-25T18:43:00.009Z,98510.41
2022-07-25T18:45:42.830Z,98505.94
2022-07-25T18:48:22.934Z,98527.63
2022-07-25T18:50:54.120Z,98526.03
2022-07-25T18:53:21.789Z,98522.44
2022-07-25T18:55:49.661Z,98537.00
2022-07-25T18:58:18.833Z,98532.50
2022-07-25T19:00:46.598Z,98544.34
2022-07-25T19:03:14.320Z,98540.16
2022-07-25T19:05:43.012Z,98551.63
2022-07-25T19:08:10.879Z,98549.78
2022-07-25T19:10:38.656Z,98540.53
2022-07-25T19:13:06.297Z,98547.16
2022-07-25T19:15:35.813Z,98551.34
2022-07-25T19:18:05.109Z,98562.34
2022-07-25T19:20:33.320Z,98561.06
2022-07-25T19:23:01.007Z,98562.75
2022-07-25T19:25:28.730Z,98572.38
2022-07-25T19:27:56.434Z,98575.84
2022-07-25T19:30:24.103Z,98572.50
2022-07-25T19:32:53.245Z,98585.91
2022-07-25T19:35:26.075Z,98578.56
2022-07-25T19:37:54.163Z,98585.91
2022-07-25T19:40:21.980Z,98582.13
2022-07-25T19:42:49.698Z,98592.09
2022-07-25T19:45:17.336Z,98584.72
2022-07-25T19:47:45.217Z,98586.78
2022-07-25T19:50:14.281Z,98594.75
2022-07-25T19:52:42.093Z,98599.38
2022-07-25T19:55:10.958Z,98606.00
2022-07-25T19:57:38.825Z,98603.84
2022-07-25T20:00:08.340Z,98602.69
2022-07-25T20:02:36.190Z,98614.16
2022-07-25T20:05:04.075Z,98611.97
2022-07-25T20:07:33.399Z,98621.59
2022-07-25T20:10:01.124Z,98625.97
2022-07-25T20:12:29.051Z,98627.69
2022-07-25T20:14:56.824Z,98627.69
2022-07-25T20:17:24.494Z,98628.69
2022-07-25T20:19:52.791Z,98628.84
2022-07-25T20:22:20.690Z,98636.63
2022-07-25T20:24:49.746Z,98640.34
2022-07-25T20:27:17.518Z,98647.75
2022-07-25T20:29:45.216Z,98643.88
2022-07-25T20:32:12.934Z,98651.63
2022-07-25T20:34:40.644Z,98658.53
2022-07-25T20:37:08.405Z,98664.63
2022-07-25T20:39:36.243Z,98664.97
2022-07-25T20:42:05.634Z,98670.03
2022-07-25T20:44:33.324Z,98672.03
2022-07-25T20:47:01.515Z,98677.38
2022-07-25T20:49:36.060Z,98690.69
2022-07-25T20:52:11.157Z,98690.16
2022-07-25T20:54:39.862Z,98702.13
2022-07-25T20:57:08.942Z,98707.69
2022-07-25T20:59:36.569Z,98702.78
2022-07-25T21:02:04.328Z,98712.84
2022-07-25T21:04:32.039Z,98709.19
2022-07-25T21:06:59.712Z,98690.44
2022-07-25T21:09:32.499Z,98708.31
2022-07-25T21:12:00.486Z,98711.81
2022-07-25T21:14:29.838Z,98711.78
2022-07-25T21:16:57.704Z,98722.84
2022-07-25T21:19:25.440Z,98719.59
2022-07-25T21:21:53.217Z,98728.31
2022-07-25T21:24:20.868Z,98729.53
2022-07-25T21:26:48.690Z,98728.00
2022-07-25T21:29:16.373Z,98726.00
2022-07-25T21:31:45.459Z,98732.19
2022-07-25T21:34:13.201Z,98736.56
2022-07-25T21:36:40.948Z,98731.97
2022-07-25T21:39:09.352Z,98734.66
2022-07-25T21:41:37.448Z,98736.69
2022-07-25T21:44:05.477Z,98744.91
2022-07-25T21:46:33.232Z,98746.50
2022-07-25T21:49:40.698Z,98749.16
2022-07-25T21:52:07.596Z,98750.34
2022-07-25T21:54:36.318Z,98761.13
2022-07-25T21:57:04.322Z,98753.69
2022-07-25T21:59:31.989Z,98766.59
2022-07-25T22:02:00.462Z,98765.00
2022-07-25T22:04:29.520Z,98762.78
2022-07-25T22:06:57.198Z,98758.84
2022-07-25T22:09:24.854Z,98762.25
2022-07-25T22:11:52.514Z,98761.72
2022-07-25T22:14:20.175Z,98762.88
2022-07-25T22:16:48.089Z,98757.25
2022-07-25T22:21:44.811Z,98763.25
2022-07-25T22:24:12.559Z,98762.94
2022-07-25T22:26:40.190Z,98766.25
2022-07-25T22:29:10.511Z,98764.03
2022-07-25T22:31:39.497Z,98773.00
2022-07-25T22:34:10.122Z,98769.25
2022-07-25T22:36:38.183Z,98768.41
2022-07-25T22:39:08.006Z,98771.72
2022-07-25T22:41:36.274Z,98776.31
2022-07-25T22:44:05.556Z,98769.06
2022-07-25T22:46:34.551Z,98773.00
2022-07-25T22:49:03.246Z,98774.06
2022-07-25T22:51:31.309Z,98776.63
2022-07-25T22:54:01.897Z,98780.84
2022-07-25T22:56:31.650Z,98779.84
2022-07-25T22:59:00.354Z,98771.34
2022-07-25T23:01:30.160Z,98782.53
2022-07-25T23:03:58.533Z,98790.28
2022-07-25T23:06:26.874Z,98800.06
2022-07-25T23:08:56.010Z,98794.91
2022-07-25T23:11:24.532Z,98790.16
2022-07-25T23:13:55.713Z,98793.63
2022-07-25T23:16:27.681Z,98796.09
2022-07-25T23:18:57.147Z,98789.72
2022-07-25T23:21:25.524Z,98789.22
2022-07-25T23:23:55.401Z,98802.63
2022-07-25T23:26:23.286Z,98803.47
2022-07-25T23:28:51.162Z,98804.03
2022-07-25T23:31:20.284Z,98808.16
2022-07-25T23:33:50.614Z,98808.59
2022-07-25T23:36:18.355Z,98804.34
2022-07-25T23:38:46.710Z,98809.16
2022-07-25T23:41:14.455Z,98807.59
2022-07-25T23:43:56.947Z,98811.41
2022-07-25T23:46:30.905Z,98808.59
2022-07-25T23:48:59.985Z,98815.78
2022-07-25T23:51:27.790Z,98820.44
2022-07-25T23:53:55.483Z,98814.78
2022-07-25T23:56:23.371Z,98826.19
2022-07-25T23:58:51.261Z,98821.97
